Time;durP1;ratioP1;P1;durP2;ratioP2;P2;SDS_P1;SDS_P2;PMS_P1;PMS_P2;Temp;Humidity;BMP_temperature;BMP_pressure;BME280_temperature;BME280_humidity;BME280_pressure;Samples;Min_cycle;Max_cycle;Signal;HPM_P1;HPM_P2
2022/04/27 00:01:35;;;;;;;11.90;6.00;;;17.50;72.20;;;;;;4942090;28;20197;-76
2022/04/27 00:04:03;;;;;;;10.23;5.30;;;17.50;71.70;;;;;;4941573;28;21354;-76
2022/04/27 00:06:32;;;;;;;12.60;5.70;;;17.50;71.80;;;;;;4939609;28;20649;-76
2022/04/27 00:09:00;;;;;;;11.57;5.17;;;17.40;71.70;;;;;;4938285;28;20209;-77
2022/04/27 00:11:33;;;;;;;11.87;5.27;;;17.40;71.70;;;;;;4940846;28;20194;-77
2022/04/27 00:14:03;;;;;;;14.20;5.93;;;17.40;72.00;;;;;;4939553;28;20226;-76
2022/04/27 00:16:31;;;;;;;12.50;5.57;;;17.40;72.00;;;;;;4942144;28;20333;-77
2022/04/27 00:19:01;;;;;;;10.70;5.20;;;17.30;72.90;;;;;;4942357;28;20232;-76
2022/04/27 00:21:29;;;;;;;8.87;5.37;;;17.30;72.20;;;;;;4941229;28;20353;-77
2022/04/27 00:23:58;;;;;;;10.60;5.60;;;17.30;72.20;;;;;;4941390;28;20206;-76
2022/04/27 00:26:26;;;;;;;13.23;5.20;;;17.30;72.30;;;;;;4942579;28;20877;-75
2022/04/27 00:28:56;;;;;;;9.43;5.07;;;17.20;72.20;;;;;;4943932;28;20190;-75
2022/04/27 00:31:24;;;;;;;13.60;5.77;;;17.20;72.20;;;;;;4946552;28;20209;-76
2022/04/27 00:33:53;;;;;;;14.43;5.70;;;17.20;72.30;;;;;;4941811;28;20281;-76
2022/04/27 00:36:21;;;;;;;11.13;5.83;;;17.20;72.30;;;;;;4944436;28;20205;-76
2022/04/27 00:38:49;;;;;;;11.13;5.23;;;17.10;72.40;;;;;;4947215;28;20223;-75
2022/04/27 00:41:18;;;;;;;14.20;5.40;;;17.20;72.50;;;;;;4941411;28;20194;-75
2022/04/27 00:43:48;;;;;;;11.57;5.50;;;17.10;72.50;;;;;;4941723;28;20625;-76
2022/04/27 00:46:17;;;;;;;10.37;5.13;;;17.10;72.60;;;;;;4943108;28;20206;-76
2022/04/27 00:48:46;;;;;;;13.37;5.87;;;17.10;72.70;;;;;;4940431;28;20206;-75
2022/04/27 00:51:17;;;;;;;10.50;5.57;;;17.00;72.80;;;;;;4940429;28;20197;-75
2022/04/27 00:53:46;;;;;;;12.60;5.27;;;17.00;73.10;;;;;;4943800;28;20187;-76
2022/04/27 00:56:17;;;;;;;9.97;5.67;;;17.00;73.80;;;;;;4942705;28;20202;-75
2022/04/27 00:58:47;;;;;;;13.37;5.77;;;16.90;73.00;;;;;;4944206;28;20234;-76
2022/04/27 01:01:21;;;;;;;9.87;5.57;;;16.90;73.00;;;;;;4943493;28;20200;-76
2022/04/27 01:03:49;;;;;;;9.97;5.33;;;16.90;73.10;;;;;;4945418;28;20790;-75
2022/04/27 01:06:18;;;;;;;14.33;6.43;;;16.90;73.10;;;;;;4944239;28;20206;-76
2022/04/27 01:08:47;;;;;;;16.43;5.80;;;16.90;73.30;;;;;;4946105;28;20210;-76
2022/04/27 01:11:16;;;;;;;12.50;5.90;;;16.80;73.70;;;;;;4944835;28;20198;-76
2022/04/27 01:13:45;;;;;;;15.60;6.30;;;16.80;73.70;;;;;;4941463;28;20321;-76
2022/04/27 01:16:13;;;;;;;9.77;5.83;;;16.80;73.80;;;;;;4941254;28;20904;-76
2022/04/27 01:18:44;;;;;;;9.37;5.60;;;16.70;73.80;;;;;;4943215;28;21243;-77
2022/04/27 01:21:13;;;;;;;11.60;5.97;;;16.70;74.00;;;;;;4944485;28;20207;-77
2022/04/27 01:23:42;;;;;;;11.90;5.70;;;16.70;74.10;;;;;;4943543;28;20194;-76
2022/04/27 01:26:10;;;;;;;13.00;6.90;;;16.70;74.30;;;;;;4944537;28;21157;-76
2022/04/27 01:28:39;;;;;;;15.87;6.67;;;16.70;75.00;;;;;;4942550;28;20209;-76
2022/04/27 01:31:09;;;;;;;12.73;6.90;;;16.70;75.20;;;;;;4943663;28;20206;-77
2022/04/27 01:33:38;;;;;;;13.23;6.63;;;16.70;75.80;;;;;;4943508;28;20839;-76
2022/04/27 01:36:08;;;;;;;11.67;6.60;;;16.70;76.50;;;;;;4942814;28;20198;-76
2022/04/27 01:38:39;;;;;;;11.37;5.83;;;16.70;77.10;;;;;;4941805;28;20206;-76
2022/04/27 01:41:08;;;;;;;11.27;6.93;;;16.60;77.50;;;;;;4945335;28;20708;-76
2022/04/27 01:43:37;;;;;;;11.13;6.03;;;16.60;77.80;;;;;;4942616;28;20205;-75
2022/04/27 01:46:06;;;;;;;10.90;6.60;;;16.50;78.00;;;;;;4942743;28;20793;-74
2022/04/27 01:48:37;;;;;;;11.43;6.23;;;16.50;77.70;;;;;;4942510;28;20187;-75
2022/04/27 01:51:05;;;;;;;9.73;5.43;;;16.60;77.70;;;;;;4943763;28;20195;-75
2022/04/27 01:56:21;;;;;;;10.33;5.07;;;16.50;77.70;;;;;;4943013;28;20187;-75
2022/04/27 01:58:49;;;;;;;12.30;5.50;;;16.50;77.90;;;;;;4942295;28;20208;-74
2022/04/27 02:01:21;;;;;;;13.13;5.37;;;16.60;77.80;;;;;;4943502;28;20205;-73
2022/04/27 02:03:51;;;;;;;7.90;4.63;;;16.60;77.90;;;;;;4943861;28;20202;-75
2022/04/27 02:06:20;;;;;;;7.27;4.70;;;16.70;77.80;;;;;;4944220;28;20214;-74
2022/04/27 02:08:49;;;;;;;7.87;3.87;;;16.70;78.10;;;;;;4943919;28;20210;-75
2022/04/27 02:11:20;;;;;;;11.77;4.53;;;16.70;77.60;;;;;;4940769;28;20646;-75
2022/04/27 02:13:53;;;;;;;7.60;3.47;;;16.70;77.20;;;;;;4942309;28;20285;-75
2022/04/27 02:16:22;;;;;;;6.33;3.57;;;16.70;76.70;;;;;;4940567;28;20193;-75
2022/04/27 02:18:51;;;;;;;5.93;3.13;;;16.80;76.50;;;;;;4941897;28;20218;-75
2022/04/27 02:21:20;;;;;;;6.63;3.30;;;16.80;76.10;;;;;;4942843;28;20199;-76
2022/04/27 02:23:49;;;;;;;8.27;3.40;;;16.90;75.80;;;;;;4942049;28;20448;-75
2022/04/27 02:26:18;;;;;;;6.33;2.50;;;16.90;75.50;;;;;;4941360;28;20194;-75
2022/04/27 02:28:50;;;;;;;4.70;2.73;;;16.90;75.00;;;;;;4942767;28;21011;-75
2022/04/27 02:31:18;;;;;;;6.17;2.83;;;16.90;74.70;;;;;;4940813;28;20189;-74
2022/04/27 02:33:47;;;;;;;9.23;3.57;;;16.90;74.60;;;;;;4940113;28;20649;-76
2022/04/27 02:36:15;;;;;;;3.60;2.30;;;17.00;74.00;;;;;;4945242;28;20208;-76
2022/04/27 02:38:43;;;;;;;5.10;2.80;;;17.00;74.00;;;;;;4943014;28;20649;-76
2022/04/27 02:41:12;;;;;;;4.30;2.40;;;17.00;73.70;;;;;;4942917;28;20253;-77
2022/04/27 02:43:40;;;;;;;4.40;2.40;;;17.00;73.40;;;;;;4943839;28;20210;-75
2022/04/27 02:46:10;;;;;;;4.53;2.70;;;17.00;73.20;;;;;;4944991;28;20277;-75
2022/04/27 02:51:48;;;;;;;4.67;2.73;;;17.00;73.10;;;;;;4941676;28;20199;-76
2022/04/27 02:54:13;;;;;;;8.77;2.47;;;17.00;72.80;;;;;;4945291;28;20196;-76
2022/04/27 02:56:42;;;;;;;5.20;2.23;;;17.00;72.60;;;;;;4941826;28;20193;-76
2022/04/27 02:59:10;;;;;;;4.97;2.50;;;17.10;72.60;;;;;;4941746;28;20690;-75
2022/04/27 03:01:40;;;;;;;7.77;2.40;;;17.00;72.30;;;;;;4941164;28;21424;-75
2022/04/27 03:04:09;;;;;;;3.60;2.37;;;17.10;72.30;;;;;;4938022;28;20344;-75
2022/04/27 03:06:38;;;;;;;4.80;2.30;;;17.10;72.20;;;;;;4940826;28;20194;-75
2022/04/27 03:09:09;;;;;;;5.87;2.70;;;17.00;72.10;;;;;;4943118;28;20202;-75
2022/04/27 03:11:37;;;;;;;4.80;2.30;;;17.00;71.90;;;;;;4940286;28;20207;-77
2022/04/27 03:14:06;;;;;;;5.70;1.80;;;17.10;72.00;;;;;;4942367;28;20187;-76
2022/04/27 03:16:34;;;;;;;4.17;2.40;;;17.00;71.70;;;;;;4939329;28;20191;-76
2022/04/27 03:19:04;;;;;;;3.80;2.50;;;17.00;71.60;;;;;;4942964;28;20873;-76
2022/04/27 03:21:32;;;;;;;3.47;2.00;;;17.10;71.70;;;;;;4940854;28;20723;-74
2022/04/27 03:24:01;;;;;;;4.77;2.17;;;17.10;71.70;;;;;;4942943;28;20207;-76
2022/04/27 03:26:29;;;;;;;5.50;2.60;;;17.10;71.70;;;;;;4940967;28;20201;-77
2022/04/27 03:28:57;;;;;;;5.03;2.63;;;17.10;71.70;;;;;;4941768;28;20205;-77
2022/04/27 03:31:26;;;;;;;5.70;2.43;;;17.00;71.50;;;;;;4940041;28;20539;-75
2022/04/27 03:33:54;;;;;;;4.40;2.33;;;17.00;71.40;;;;;;4940197;28;20297;-75
2022/04/27 03:36:24;;;;;;;4.83;2.10;;;17.10;71.40;;;;;;4940928;28;20544;-77
2022/04/27 03:38:52;;;;;;;3.20;2.20;;;17.10;71.30;;;;;;4941510;28;20247;-75
2022/04/27 03:41:22;;;;;;;4.87;2.27;;;17.00;71.30;;;;;;4938166;28;20221;-75
2022/04/27 03:43:51;;;;;;;3.93;2.40;;;17.00;71.20;;;;;;4938426;28;20222;-76
2022/04/27 03:46:20;;;;;;;5.73;2.87;;;17.10;71.30;;;;;;4940333;28;20696;-75
2022/04/27 03:49:09;;;;;;;5.30;2.03;;;17.10;71.20;;;;;;4939159;28;20206;-76
2022/04/27 03:51:38;;;;;;;5.87;2.60;;;17.10;71.30;;;;;;4940066;28;20205;-76
2022/04/27 03:54:07;;;;;;;3.87;2.53;;;17.10;71.20;;;;;;4941968;28;20202;-77
2022/04/27 03:56:35;;;;;;;3.90;2.50;;;17.10;71.10;;;;;;4942651;28;20653;-74
2022/04/27 03:59:03;;;;;;;3.80;2.47;;;17.10;71.10;;;;;;4942015;28;20249;-75
2022/04/27 04:01:32;;;;;;;5.70;3.27;;;17.10;71.30;;;;;;4942511;28;20226;-72
2022/04/27 04:04:00;;;;;;;3.83;2.67;;;17.10;71.40;;;;;;4945486;28;20358;-74
2022/04/27 04:06:29;;;;;;;4.90;2.37;;;17.20;71.40;;;;;;4945310;28;20265;-76
2022/04/27 04:08:58;;;;;;;7.47;2.23;;;17.20;71.30;;;;;;4946200;28;20205;-74
2022/04/27 04:11:27;;;;;;;4.23;2.47;;;17.20;71.10;;;;;;4946657;28;20206;-74
2022/04/27 04:13:55;;;;;;;4.53;2.57;;;17.20;71.10;;;;;;4944961;28;20233;-74
2022/04/27 04:16:23;;;;;;;5.20;2.30;;;17.20;71.10;;;;;;4944668;28;20194;-73
2022/04/27 04:18:52;;;;;;;4.43;2.60;;;17.20;71.00;;;;;;4945050;28;20871;-74
2022/04/27 04:21:20;;;;;;;6.20;2.67;;;17.30;70.90;;;;;;4944826;28;20226;-73
2022/04/27 04:23:48;;;;;;;4.90;2.40;;;17.30;71.00;;;;;;4941892;28;21537;-74
2022/04/27 04:29:04;;;;;;;5.47;2.83;;;17.30;70.80;;;;;;4945603;28;20198;-75
2022/04/27 04:31:32;;;;;;;8.40;2.27;;;17.30;70.60;;;;;;4946196;28;20423;-75
2022/04/27 04:34:01;;;;;;;3.87;2.40;;;17.30;70.50;;;;;;4945406;28;20224;-75
2022/04/27 04:36:29;;;;;;;3.67;2.33;;;17.30;70.50;;;;;;4944196;28;20206;-77
2022/04/27 04:38:58;;;;;;;4.00;2.60;;;17.30;70.80;;;;;;4944003;28;20205;-76
2022/04/27 04:41:27;;;;;;;5.03;2.67;;;17.40;70.80;;;;;;4941778;28;21642;-77
2022/04/27 04:43:56;;;;;;;5.13;2.73;;;17.40;70.70;;;;;;4942786;28;20205;-77
2022/04/27 04:46:24;;;;;;;5.40;2.73;;;17.50;70.70;;;;;;4944464;28;20202;-75
2022/04/27 04:48:53;;;;;;;5.43;2.43;;;17.50;70.70;;;;;;4943367;28;20205;-76
2022/04/27 04:51:21;;;;;;;3.90;2.53;;;17.50;70.70;;;;;;4943189;28;20198;-76
2022/04/27 04:54:03;;;;;;;3.97;2.47;;;17.50;70.30;;;;;;4946554;28;20192;-76
2022/04/27 04:56:32;;;;;;;6.30;2.60;;;17.50;70.40;;;;;;4945010;28;20230;-77
2022/04/27 04:59:01;;;;;;;5.30;2.37;;;17.60;70.50;;;;;;4942791;28;20205;-75
2022/04/27 05:01:29;;;;;;;6.53;2.33;;;17.60;70.50;;;;;;4948594;28;20221;-75
2022/04/27 05:03:58;;;;;;;6.13;2.43;;;17.70;70.60;;;;;;4944276;28;20205;-76
2022/04/27 05:06:33;;;;;;;4.30;2.50;;;17.70;70.70;;;;;;4943685;28;20194;-78
2022/04/27 05:09:04;;;;;;;5.23;2.47;;;17.70;70.50;;;;;;4944242;28;20207;-75
2022/04/27 05:11:33;;;;;;;7.77;2.97;;;17.80;70.40;;;;;;4944931;28;20329;-76
2022/04/27 05:14:02;;;;;;;8.50;2.63;;;17.80;70.30;;;;;;4948238;28;20230;-78
2022/04/27 05:16:32;;;;;;;5.07;2.67;;;17.80;70.40;;;;;;4948285;28;20207;-79
2022/04/27 05:19:09;;;;;;;4.07;2.30;;;17.80;70.30;;;;;;4920840;28;20690;-76
2022/04/27 05:21:37;;;;;;;5.40;2.70;;;17.90;70.40;;;;;;4947292;28;20562;-77
2022/04/27 05:24:06;;;;;;;6.03;2.37;;;17.90;70.30;;;;;;4947419;28;20673;-77
2022/04/27 05:26:36;;;;;;;8.30;2.20;;;18.00;70.50;;;;;;4949356;28;20201;-77
2022/04/27 05:31:57;;;;;;;5.63;2.30;;;18.10;70.50;;;;;;4948002;28;20836;-78
2022/04/27 05:34:29;;;;;;;7.57;2.83;;;18.10;70.50;;;;;;4946627;28;20372;-75
2022/04/27 05:36:58;;;;;;;5.43;2.07;;;18.10;70.50;;;;;;4948510;28;20205;-75
2022/04/27 05:39:27;;;;;;;5.80;2.40;;;18.20;70.40;;;;;;4946311;28;20232;-75
2022/04/27 05:41:56;;;;;;;5.57;2.50;;;18.30;70.50;;;;;;4946369;28;20221;-77
2022/04/27 05:44:26;;;;;;;4.80;2.47;;;18.40;70.50;;;;;;4949152;28;20749;-76
2022/04/27 05:46:56;;;;;;;4.93;2.40;;;18.50;70.40;;;;;;4949435;28;20199;-77
2022/04/27 05:49:24;;;;;;;4.57;2.40;;;18.50;70.00;;;;;;4944150;28;20211;-76
2022/04/27 05:55:45;;;;;;;4.90;2.60;;;18.60;69.60;;;;;;5331476;23;20256;-76
2022/04/27 05:58:15;;;;;;;6.73;2.77;;;18.70;69.50;;;;;;4958879;28;20282;-76
2022/04/27 06:00:46;;;;;;;5.60;2.40;;;18.80;69.40;;;;;;4964030;28;20193;-75
2022/04/27 06:03:14;;;;;;;4.30;2.40;;;18.90;69.50;;;;;;4960567;28;20197;-74
2022/04/27 06:05:43;;;;;;;5.07;2.43;;;19.00;69.70;;;;;;4961376;28;20205;-75
2022/04/27 06:08:11;;;;;;;4.47;2.20;;;19.10;69.40;;;;;;4961963;28;20204;-75
2022/04/27 06:10:39;;;;;;;4.80;2.23;;;19.20;68.90;;;;;;4960605;28;20198;-74
2022/04/27 06:13:08;;;;;;;5.67;2.60;;;19.20;68.50;;;;;;4961976;28;20194;-76
2022/04/27 06:15:38;;;;;;;7.93;2.77;;;19.30;68.20;;;;;;4960373;28;20236;-76
2022/04/27 06:18:07;;;;;;;3.77;2.37;;;19.40;68.20;;;;;;4961577;28;20651;-76
2022/04/27 06:20:35;;;;;;;5.47;2.40;;;19.50;68.20;;;;;;4961353;28;20206;-74
2022/04/27 06:23:04;;;;;;;4.77;2.57;;;19.50;68.20;;;;;;4961414;28;20232;-72
2022/04/27 06:25:34;;;;;;;5.00;2.50;;;19.60;68.10;;;;;;4962081;28;20197;-76
2022/04/27 06:28:03;;;;;;;6.97;2.50;;;19.70;68.00;;;;;;4960962;28;20185;-74
2022/04/27 06:30:35;;;;;;;5.77;2.43;;;19.70;67.90;;;;;;4959428;28;20204;-75
2022/04/27 06:33:05;;;;;;;4.33;2.70;;;19.80;67.70;;;;;;4960773;28;20186;-75
2022/04/27 06:35:33;;;;;;;7.10;2.23;;;19.80;67.50;;;;;;4962129;28;20190;-75
2022/04/27 06:38:01;;;;;;;6.23;2.73;;;19.90;67.50;;;;;;4962770;28;20202;-75
2022/04/27 06:40:50;;;;;;;5.07;2.70;;;19.90;67.40;;;;;;4962518;28;20197;-75
2022/04/27 06:43:18;;;;;;;5.03;2.40;;;20.00;67.10;;;;;;4962966;28;20216;-76
2022/04/27 06:45:47;;;;;;;4.20;2.37;;;20.00;66.80;;;;;;4962412;28;20185;-74
2022/04/27 06:48:16;;;;;;;5.40;2.27;;;20.10;66.70;;;;;;4962662;28;20306;-75
2022/04/27 06:50:45;;;;;;;8.17;2.57;;;20.10;66.30;;;;;;4962245;28;20967;-76
2022/04/27 06:53:13;;;;;;;11.10;2.90;;;20.10;65.60;;;;;;4962185;28;20201;-76
2022/04/27 06:55:41;;;;;;;3.60;2.20;;;20.20;65.90;;;;;;4964203;28;20618;-75
2022/04/27 06:58:10;;;;;;;5.13;2.57;;;20.20;65.60;;;;;;4963692;28;20222;-76
2022/04/27 07:00:38;;;;;;;5.67;2.70;;;20.30;65.80;;;;;;4961686;28;20194;-77
2022/04/27 07:03:07;;;;;;;6.57;2.47;;;20.40;66.10;;;;;;4961643;28;20226;-75
2022/04/27 07:05:37;;;;;;;6.43;2.50;;;20.40;66.60;;;;;;4961848;28;20197;-76
2022/04/27 07:08:06;;;;;;;5.57;2.50;;;20.50;65.70;;;;;;4961350;28;20206;-76
2022/04/27 07:10:36;;;;;;;7.80;2.30;;;20.50;65.90;;;;;;4962114;28;20205;-76
2022/04/27 07:13:05;;;;;;;5.43;2.70;;;20.60;65.50;;;;;;4960318;28;20656;-75
2022/04/27 07:15:34;;;;;;;5.20;2.80;;;20.60;65.40;;;;;;4961935;28;20198;-75
2022/04/27 07:18:02;;;;;;;3.83;2.43;;;20.70;65.50;;;;;;4960263;28;20284;-74
2022/04/27 07:20:31;;;;;;;4.10;2.60;;;20.70;65.20;;;;;;4962294;28;20620;-75
2022/04/27 07:23:00;;;;;;;4.40;2.63;;;20.70;65.30;;;;;;4961596;28;20715;-74
2022/04/27 07:25:29;;;;;;;6.00;2.67;;;20.80;65.40;;;;;;4964674;28;20224;-76
2022/04/27 07:27:57;;;;;;;5.27;2.40;;;20.80;65.40;;;;;;4961402;28;20197;-74
2022/04/27 07:30:27;;;;;;;6.17;2.77;;;20.90;65.50;;;;;;4962045;28;20221;-75
2022/04/27 07:32:56;;;;;;;4.50;2.80;;;20.90;65.50;;;;;;4962480;28;20193;-77
2022/04/27 07:35:24;;;;;;;5.63;2.37;;;21.00;65.20;;;;;;4965806;28;20650;-76
2022/04/27 07:37:52;;;;;;;3.97;2.55;;;21.00;65.10;;;;;;4965999;28;20194;-75
2022/04/27 07:40:22;;;;;;;5.47;2.53;;;21.10;64.90;;;;;;4967079;28;20196;-75
2022/04/27 07:42:51;;;;;;;5.90;2.40;;;21.10;65.10;;;;;;4966874;28;20220;-75
2022/04/27 07:45:19;;;;;;;6.77;2.40;;;21.20;65.20;;;;;;4965073;28;20201;-75
2022/04/27 07:47:48;;;;;;;5.43;2.47;;;21.20;65.20;;;;;;4965239;28;20855;-75
2022/04/27 07:50:17;;;;;;;3.83;2.17;;;21.20;65.10;;;;;;4964728;28;20220;-77
2022/04/27 07:52:46;;;;;;;6.03;1.92;;;21.30;64.90;;;;;;4964964;28;20215;-75
2022/04/27 07:55:14;;;;;;;4.78;2.38;;;21.40;65.00;;;;;;4965113;28;20208;-76
2022/04/27 07:57:45;;;;;;;3.08;1.75;;;21.40;64.50;;;;;;4965884;28;20217;-75
2022/04/27 08:00:14;;;;;;;3.67;2.05;;;21.60;64.70;;;;;;4966184;28;20193;-75
2022/04/27 08:02:43;;;;;;;7.50;2.40;;;21.60;64.30;;;;;;4965449;28;20221;-77
2022/04/27 08:05:12;;;;;;;12.35;2.55;;;21.70;63.90;;;;;;4962236;28;20216;-76
2022/04/27 08:07:43;;;;;;;6.22;2.83;;;21.80;63.70;;;;;;4964182;28;20201;-75
2022/04/27 08:10:13;;;;;;;6.22;2.40;;;21.80;63.10;;;;;;4964673;28;20193;-75
2022/04/27 08:12:46;;;;;;;4.75;2.50;;;21.80;62.80;;;;;;4965416;28;20205;-75
2022/04/27 08:15:16;;;;;;;9.27;2.70;;;21.90;63.10;;;;;;4965416;28;20197;-75
2022/04/27 08:17:54;;;;;;;7.18;2.13;;;21.90;63.30;;;;;;4962694;28;20816;-75
2022/04/27 08:23:12;;;;;;;5.63;2.30;;;21.90;62.90;;;;;;4965790;28;20781;-75
2022/04/27 08:25:45;;;;;;;5.28;2.90;;;21.90;62.70;;;;;;4968810;28;20193;-75
2022/04/27 08:28:16;;;;;;;5.68;2.40;;;21.90;62.50;;;;;;4967488;28;20220;-74
2022/04/27 08:30:46;;;;;;;3.28;2.25;;;22.00;62.40;;;;;;4968386;28;20216;-74
2022/04/27 08:33:15;;;;;;;5.90;2.60;;;22.00;62.70;;;;;;4960792;28;20186;-75
2022/04/27 08:35:44;;;;;;;8.68;2.50;;;22.10;63.00;;;;;;4965183;28;20193;-75
2022/04/27 08:38:12;;;;;;;9.88;2.40;;;22.10;63.00;;;;;;4964248;28;20216;-76
2022/04/27 08:40:44;;;;;;;6.88;2.20;;;22.20;63.10;;;;;;4964961;28;20224;-75
2022/04/27 08:43:14;;;;;;;4.03;2.45;;;22.30;63.10;;;;;;4964224;28;20644;-75
2022/04/27 08:45:44;;;;;;;9.77;2.92;;;22.40;63.10;;;;;;4964532;28;20875;-73
2022/04/27 08:48:14;;;;;;;4.22;2.25;;;22.40;63.00;;;;;;4963700;28;21043;-74
2022/04/27 08:50:42;;;;;;;5.70;2.22;;;22.50;62.70;;;;;;4963762;28;20738;-75
2022/04/27 08:53:11;;;;;;;3.85;2.50;;;22.60;62.70;;;;;;4960923;28;20284;-74
2022/04/27 08:55:40;;;;;;;6.97;2.17;;;22.60;62.40;;;;;;4964013;28;20216;-73
2022/04/27 08:58:10;;;;;;;4.28;2.15;;;22.60;62.20;;;;;;4963492;28;20316;-74
2022/04/27 09:01:00;;;;;;;6.25;2.30;;;22.70;62.30;;;;;;4965129;28;20201;-75
2022/04/27 09:03:31;;;;;;;5.80;2.50;;;22.70;62.30;;;;;;4963853;28;20213;-73
2022/04/27 09:06:03;;;;;;;6.28;2.38;;;22.80;62.00;;;;;;4963242;28;20194;-77
2022/04/27 09:08:43;;;;;;;4.13;2.10;;;22.80;61.80;;;;;;4961988;28;20194;-75
2022/04/27 09:11:18;;;;;;;3.90;2.00;;;22.90;62.00;;;;;;4963181;28;20200;-75
2022/04/27 09:13:48;;;;;;;3.90;2.25;;;22.90;61.10;;;;;;4962423;28;20198;-75
2022/04/27 09:16:21;;;;;;;5.65;2.05;;;23.00;61.40;;;;;;4963349;28;20281;-74
2022/04/27 09:21:59;;;;;;;6.22;2.40;;;23.10;61.60;;;;;;4962793;28;20203;-73
2022/04/27 09:24:30;;;;;;;4.30;2.15;;;23.20;61.50;;;;;;4961507;28;20217;-75
2022/04/27 09:27:13;;;;;;;5.32;2.05;;;23.30;61.60;;;;;;4962255;28;20208;-74
2022/04/27 09:29:42;;;;;;;4.07;2.10;;;23.40;62.50;;;;;;4965650;28;20421;-74
2022/04/27 09:32:16;;;;;;;4.28;2.03;;;23.50;61.30;;;;;;4963009;28;20201;-72
2022/04/27 09:34:45;;;;;;;5.22;1.92;;;23.60;61.30;;;;;;4962070;28;21262;-74
2022/04/27 09:37:16;;;;;;;4.43;1.98;;;23.60;60.90;;;;;;4962587;28;20856;-73
2022/04/27 09:39:45;;;;;;;3.90;1.80;;;23.60;60.00;;;;;;4964546;28;20635;-74
2022/04/27 09:42:14;;;;;;;4.32;1.90;;;23.70;60.10;;;;;;4963549;28;20213;-73
2022/04/27 09:44:42;;;;;;;4.93;1.60;;;23.70;59.60;;;;;;4964023;28;20214;-78
2022/04/27 09:47:22;;;;;;;4.80;1.63;;;23.80;59.90;;;;;;4962489;28;20646;-73
2022/04/27 09:49:55;;;;;;;7.97;1.75;;;23.90;59.50;;;;;;4963571;28;20205;-73
2022/04/27 09:52:27;;;;;;;3.45;1.92;;;23.90;59.60;;;;;;4960866;28;20736;-73
2022/04/27 09:54:58;;;;;;;4.28;1.65;;;24.00;59.40;;;;;;4964791;28;20200;-73
2022/04/27 09:57:30;;;;;;;3.67;1.60;;;24.10;59.20;;;;;;4960913;28;20217;-74
2022/04/27 09:59:59;;;;;;;4.35;1.55;;;24.10;59.20;;;;;;4963305;28;20198;-73
2022/04/27 10:02:30;;;;;;;3.17;1.40;;;24.10;58.60;;;;;;4962512;28;20862;-72
2022/04/27 10:05:01;;;;;;;3.65;1.30;;;24.20;58.60;;;;;;4962028;28;20276;-75
2022/04/27 10:07:32;;;;;;;3.05;1.58;;;24.30;58.10;;;;;;4962783;28;20207;-73
2022/04/27 10:10:00;;;;;;;3.38;1.75;;;24.30;57.60;;;;;;4963534;28;20197;-74
2022/04/27 10:12:29;;;;;;;2.50;1.33;;;24.40;57.20;;;;;;4966569;28;20204;-74
2022/04/27 10:14:59;;;;;;;3.22;1.40;;;24.40;57.50;;;;;;4963521;28;20185;-75
2022/04/27 10:17:30;;;;;;;5.10;1.48;;;24.50;57.60;;;;;;4964212;28;20193;-75
2022/04/27 10:19:58;;;;;;;3.55;1.50;;;24.50;57.80;;;;;;4964196;28;20201;-74
2022/04/27 10:22:28;;;;;;;3.55;1.52;;;24.60;57.80;;;;;;4962272;28;20205;-73
2022/04/27 10:24:57;;;;;;;3.25;1.75;;;24.60;57.10;;;;;;4964014;28;20213;-73
2022/04/27 10:27:27;;;;;;;3.00;1.52;;;24.70;56.80;;;;;;4962932;28;20204;-76
2022/04/27 10:30:00;;;;;;;4.78;1.75;;;24.70;56.90;;;;;;4963534;28;20202;-73
2022/04/27 10:32:41;;;;;;;3.40;1.67;;;24.80;57.10;;;;;;4963788;28;20200;-75
2022/04/27 10:35:18;;;;;;;3.55;1.73;;;24.80;56.90;;;;;;4963619;28;20197;-74
2022/04/27 10:37:49;;;;;;;5.13;1.48;;;24.80;56.80;;;;;;4959444;28;21016;-75
2022/04/27 10:40:34;;;;;;;3.25;1.48;;;24.90;56.80;;;;;;4961213;28;20765;-75
2022/04/27 10:43:11;;;;;;;2.78;1.73;;;25.00;57.00;;;;;;4961756;28;20204;-75
2022/04/27 10:45:41;;;;;;;5.30;1.83;;;25.10;57.10;;;;;;4960241;28;20193;-74
2022/04/27 10:48:22;;;;;;;3.22;1.60;;;25.10;56.80;;;;;;4961386;28;20197;-75
2022/04/27 10:51:00;;;;;;;5.55;1.80;;;25.20;56.70;;;;;;4963100;28;20201;-75
2022/04/27 10:53:29;;;;;;;2.95;1.40;;;25.20;56.30;;;;;;4963483;28;20637;-74
2022/04/27 10:56:25;;;;;;;3.88;1.55;;;25.30;55.40;;;;;;4960648;28;20284;-75
2022/04/27 10:58:55;;;;;;;4.57;1.67;;;25.30;55.70;;;;;;4960762;28;20205;-75
2022/04/27 11:01:31;;;;;;;9.27;1.73;;;25.30;55.70;;;;;;4962262;28;20200;-75
2022/04/27 11:04:11;;;;;;;3.80;1.70;;;25.40;56.20;;;;;;4960702;28;20218;-75
2022/04/27 11:07:25;;;;;;;3.95;1.38;;;25.50;56.20;;;;;;4964252;28;20212;-75
2022/04/27 11:10:14;;;;;;;2.53;0.90;;;25.60;56.00;;;;;;4961420;28;20646;-75
2022/04/27 11:12:46;;;;;;;1.60;0.93;;;25.60;55.70;;;;;;4962881;28;20610;-75
2022/04/27 11:15:21;;;;;;;4.28;1.65;;;25.60;55.20;;;;;;4959798;28;20213;-76
2022/04/27 11:18:01;;;;;;;2.85;1.40;;;25.70;55.50;;;;;;4961219;28;20193;-75
2022/04/27 11:20:33;;;;;;;4.07;1.50;;;25.80;55.70;;;;;;4961585;28;20292;-75
2022/04/27 11:23:08;;;;;;;6.88;1.40;;;25.90;55.90;;;;;;4962252;28;20790;-74
2022/04/27 11:25:37;;;;;;;3.75;1.30;;;25.80;55.10;;;;;;4962892;28;20209;-74
2022/04/27 11:28:07;;;;;;;3.75;1.45;;;25.90;55.00;;;;;;4959986;28;20205;-76
2022/04/27 11:30:36;;;;;;;7.15;1.50;;;25.90;54.50;;;;;;4959490;28;20230;-75
2022/04/27 11:33:04;;;;;;;1.80;1.10;;;25.90;54.40;;;;;;4960608;28;20205;-76
2022/04/27 11:35:42;;;;;;;3.05;1.30;;;26.00;54.50;;;;;;4962084;28;20205;-75
2022/04/27 11:38:11;;;;;;;3.55;1.52;;;26.00;54.10;;;;;;4959716;28;20196;-75
2022/04/27 11:40:40;;;;;;;2.33;1.17;;;26.10;54.20;;;;;;4961207;28;20185;-75
2022/04/27 11:43:08;;;;;;;5.18;1.17;;;26.10;54.00;;;;;;4961178;28;20193;-74
2022/04/27 11:45:37;;;;;;;8.82;1.13;;;26.20;53.40;;;;;;4962369;28;20213;-75
2022/04/27 11:48:07;;;;;;;4.55;1.02;;;26.20;53.40;;;;;;4961003;28;20208;-75
2022/04/27 11:50:38;;;;;;;3.20;1.23;;;26.30;53.20;;;;;;4962914;28;20256;-74
2022/04/27 11:53:09;;;;;;;2.67;1.02;;;26.30;52.20;;;;;;4960626;28;20190;-74
2022/04/27 11:55:38;;;;;;;5.05;1.15;;;26.30;51.80;;;;;;4962103;28;20192;-73
2022/04/27 11:58:08;;;;;;;8.93;1.15;;;26.40;52.10;;;;;;4959837;28;20861;-76
2022/04/27 12:00:37;;;;;;;3.42;0.90;;;26.40;52.40;;;;;;4961461;28;20229;-74
2022/04/27 12:03:07;;;;;;;5.25;0.90;;;26.40;52.00;;;;;;4959298;28;20201;-75
2022/04/27 12:05:38;;;;;;;4.68;1.13;;;26.40;51.50;;;;;;4961513;28;20220;-75
2022/04/27 12:08:10;;;;;;;3.35;1.10;;;26.40;51.00;;;;;;4961266;28;20198;-74
2022/04/27 12:10:43;;;;;;;3.40;1.13;;;26.50;51.30;;;;;;4960074;28;20651;-74
2022/04/27 12:13:13;;;;;;;1.88;1.00;;;26.50;52.30;;;;;;4960928;28;20209;-75
2022/04/27 12:15:42;;;;;;;2.28;1.02;;;26.50;52.90;;;;;;4962208;28;20209;-74
2022/04/27 12:18:15;;;;;;;6.00;0.85;;;26.60;52.00;;;;;;4960717;28;20197;-74
2022/04/27 12:20:45;;;;;;;2.20;1.00;;;26.70;51.90;;;;;;4963323;28;20204;-75
2022/04/27 12:23:16;;;;;;;3.17;0.90;;;26.80;51.50;;;;;;4964601;28;20617;-75
2022/04/27 12:25:49;;;;;;;3.78;1.45;;;26.80;51.80;;;;;;4965067;28;20232;-74
2022/04/27 12:28:18;;;;;;;3.90;1.10;;;26.90;51.20;;;;;;4962767;28;20186;-73
2022/04/27 12:30:49;;;;;;;3.95;0.90;;;26.90;51.40;;;;;;4964646;28;20216;-73
2022/04/27 12:33:21;;;;;;;5.45;0.93;;;26.90;51.50;;;;;;4964741;28;20194;-75
2022/04/27 12:38:58;;;;;;;1.73;0.90;;;27.00;49.30;;;;;;4964263;28;20735;-76
2022/04/27 12:41:30;;;;;;;6.88;1.00;;;27.00;49.40;;;;;;4964861;28;20193;-73
2022/04/27 12:44:07;;;;;;;2.58;1.15;;;27.00;49.80;;;;;;4962561;28;20202;-75
2022/04/27 12:46:59;;;;;;;6.07;0.90;;;26.90;49.70;;;;;;4964672;28;20198;-74
2022/04/27 12:49:28;;;;;;;3.35;1.00;;;26.90;49.90;;;;;;4964375;28;20219;-74
2022/04/27 12:51:58;;;;;;;1.58;0.88;;;26.90;50.10;;;;;;4963989;28;20296;-74
2022/04/27 12:54:36;;;;;;;3.28;1.20;;;27.00;50.50;;;;;;4963619;28;20887;-74
2022/04/27 12:57:06;;;;;;;7.03;1.25;;;27.00;50.30;;;;;;4963038;28;20971;-74
2022/04/27 12:59:34;;;;;;;5.20;1.00;;;27.10;50.50;;;;;;4962078;28;20518;-74
2022/04/27 13:02:06;;;;;;;2.78;0.70;;;27.10;50.20;;;;;;4964906;28;20821;-75
2022/04/27 13:04:35;;;;;;;2.42;1.10;;;27.00;50.10;;;;;;4963008;28;20202;-74
2022/04/27 13:07:04;;;;;;;3.42;1.00;;;26.90;49.70;;;;;;4961752;28;20292;-73
2022/04/27 13:12:22;;;;;;;6.43;0.95;;;27.10;50.10;;;;;;4959445;28;20197;-73
2022/04/27 13:14:50;;;;;;;4.90;0.90;;;27.10;49.10;;;;;;4963682;28;20202;-74
2022/04/27 13:17:18;;;;;;;9.70;1.25;;;27.20;49.10;;;;;;4964215;28;20209;-75
2022/04/27 13:19:47;;;;;;;4.70;0.85;;;27.20;49.60;;;;;;4962568;28;20574;-74
2022/04/27 13:22:15;;;;;;;1.95;0.93;;;27.30;48.80;;;;;;4964600;28;20763;-73
2022/04/27 13:24:45;;;;;;;3.60;0.70;;;27.40;48.90;;;;;;4962819;28;20201;-74
2022/04/27 13:27:24;;;;;;;1.83;0.70;;;27.40;48.60;;;;;;4962656;28;20737;-73
2022/04/27 13:29:52;;;;;;;1.67;0.73;;;27.50;48.70;;;;;;4962965;28;20252;-74